Terminal Aerodrome Forecast
Issued by NWS

Home | Current Version | Previous Version | Graphics & Text | Print | Product List | Glossary On
Versions: 1 2 3 4 5 6 7 8 9 10 11 12 13 14 15 16 17 18 19 20
000
FTUS43 KICT 250650 AAA
TAFHUT
TAF AMD
KHUT 250650Z 2507/2606 30008KT P6SM VCSH SCT025 OVC090
      TEMPO 2507/2509 5SM SHRA
     FM251200 27009KT P6SM SCT030 BKN050
     FM251600 33013KT P6SM SCT050
     FM260100 03014KT P6SM SCT060=

USA.gov is the U.S. government's official web portal to all federal, state and local government web resources and services.